createdAt,value
2023-05-22T00:02:18.144Z,13.95
2023-05-22T00:04:47.123Z,13.93
2023-05-22T00:07:15.821Z,13.94
2023-05-22T00:09:44.181Z,13.94
2023-05-22T00:12:12.586Z,13.91
2023-05-22T00:14:40.961Z,13.86
2023-05-22T00:17:10.505Z,13.84
2023-05-22T00:19:38.977Z,13.83
2023-05-22T00:22:07.479Z,13.80
2023-05-22T00:24:36.333Z,13.78
2023-05-22T00:27:05.253Z,13.76
2023-05-22T00:29:33.665Z,13.69
2023-05-22T00:32:02.059Z,13.64
2023-05-22T00:34:30.435Z,13.60
2023-05-22T00:36:58.927Z,13.57
2023-05-22T00:39:27.444Z,13.54
2023-05-22T00:41:55.853Z,13.50
2023-05-22T00:44:24.552Z,13.46
2023-05-22T00:46:53.135Z,13.43
2023-05-22T00:49:21.545Z,13.39
2023-05-22T00:51:50.266Z,13.38
2023-05-22T00:54:18.827Z,13.38
2023-05-22T00:56:47.923Z,13.36
2023-05-22T00:59:17.632Z,13.32
2023-05-22T01:01:46.392Z,13.30
2023-05-22T01:04:15.756Z,13.29
2023-05-22T01:06:47.930Z,13.24
2023-05-22T01:09:16.410Z,13.21
2023-05-22T01:12:16.327Z,13.18
2023-05-22T01:15:00.506Z,13.13
2023-05-22T01:17:56.017Z,13.07
2023-05-22T01:20:49.186Z,13.01
2023-05-22T01:23:49.148Z,12.98
2023-05-22T01:26:23.576Z,12.93
2023-05-22T01:29:13.687Z,12.85
2023-05-22T01:31:44.160Z,12.76
2023-05-22T01:34:14.146Z,12.66
2023-05-22T01:36:47.362Z,12.60
2023-05-22T01:39:16.549Z,12.55
2023-05-22T01:41:45.886Z,12.53
2023-05-22T01:44:15.114Z,12.49
2023-05-22T01:46:43.505Z,12.45
2023-05-22T01:49:11.908Z,12.40
2023-05-22T01:51:54.647Z,12.35
2023-05-22T01:54:47.038Z,12.29
2023-05-22T01:57:51.169Z,12.18
2023-05-22T02:00:22.660Z,12.06
2023-05-22T02:03:16.858Z,12.00
2023-05-22T02:05:47.347Z,11.90
2023-05-22T02:08:17.010Z,11.81
2023-05-22T02:10:46.809Z,11.75
2023-05-22T02:13:15.336Z,11.71
2023-05-22T02:15:46.786Z,11.70
2023-05-22T02:18:15.259Z,11.69
2023-05-22T02:20:44.166Z,11.64
2023-05-22T02:23:12.681Z,11.54
2023-05-22T02:25:41.459Z,11.48
2023-05-22T02:28:09.934Z,11.45
2023-05-22T02:30:38.798Z,11.41
2023-05-22T02:33:09.687Z,11.34
2023-05-22T02:35:37.905Z,11.28
2023-05-22T02:38:06.992Z,11.21
2023-05-22T02:40:35.452Z,11.19
2023-05-22T02:43:04.038Z,11.18
2023-05-22T02:45:33.235Z,11.14
2023-05-22T02:48:03.937Z,11.12
2023-05-22T02:50:32.414Z,11.11
2023-05-22T02:53:00.987Z,11.09
2023-05-22T02:55:29.481Z,11.08
2023-05-22T02:57:57.986Z,11.09
2023-05-22T03:00:26.509Z,11.10
2023-05-22T03:02:55.016Z,11.09
2023-05-22T03:05:23.511Z,11.09
2023-05-22T03:07:53.061Z,11.04
2023-05-22T03:10:21.555Z,10.98
2023-05-22T03:12:52.086Z,10.93
2023-05-22T03:15:20.966Z,10.92
2023-05-22T03:17:49.407Z,10.98
2023-05-22T03:20:18.207Z,11.02
2023-05-22T03:22:46.625Z,11.06
2023-05-22T03:25:15.043Z,11.09
2023-05-22T03:27:43.614Z,11.11
2023-05-22T03:30:12.783Z,11.13
2023-05-22T03:32:41.298Z,11.16
2023-05-22T03:35:10.209Z,11.20
2023-05-22T03:37:38.528Z,11.22
2023-05-22T03:40:08.049Z,11.26
2023-05-22T03:42:36.387Z,11.31
2023-05-22T03:45:05.389Z,11.34
2023-05-22T03:47:33.816Z,11.40
2023-05-22T03:50:02.166Z,11.46
2023-05-22T03:52:30.675Z,11.54
2023-05-22T03:54:59.241Z,11.64
2023-05-22T03:57:27.705Z,11.74
2023-05-22T03:59:56.077Z,11.82
2023-05-22T04:02:26.583Z,11.91
2023-05-22T04:04:55.189Z,11.98
2023-05-22T04:07:23.596Z,12.03
2023-05-22T04:09:51.986Z,12.10
2023-05-22T04:12:20.369Z,12.16
2023-05-22T04:14:48.602Z,12.20
2023-05-22T04:17:16.997Z,12.25
2023-05-22T04:19:45.333Z,12.31
2023-05-22T04:22:13.668Z,12.37
2023-05-22T04:24:42.011Z,12.43
2023-05-22T04:27:10.501Z,12.49
2023-05-22T04:29:41.870Z,12.55
2023-05-22T04:32:10.988Z,12.61
2023-05-22T04:34:39.344Z,12.68
2023-05-22T04:37:07.710Z,12.74
2023-05-22T04:39:36.263Z,12.79
2023-05-22T04:42:06.432Z,12.84
2023-05-22T04:44:35.000Z,12.90
2023-05-22T04:47:06.065Z,12.97
2023-05-22T04:49:36.160Z,13.04
2023-05-22T04:52:06.447Z,13.11
2023-05-22T04:54:34.802Z,13.20
2023-05-22T04:57:05.113Z,13.29
2023-05-22T04:59:40.282Z,13.37
2023-05-22T05:02:08.734Z,13.47
2023-05-22T05:04:37.474Z,13.56
2023-05-22T05:07:06.538Z,13.65
2023-05-22T05:09:35.017Z,13.75
2023-05-22T05:15:30.610Z,13.96
2023-05-22T05:19:12.028Z,14.06
2023-05-22T05:21:55.571Z,14.23
2023-05-22T05:24:56.048Z,14.39
2023-05-22T05:28:33.326Z,14.52
2023-05-22T05:32:01.440Z,14.67
2023-05-22T05:34:30.517Z,14.82
2023-05-22T05:37:56.734Z,14.96
2023-05-22T05:40:39.709Z,15.15
2023-05-22T05:47:20.535Z,15.41
2023-05-22T05:50:48.891Z,15.60
2023-05-22T05:54:15.500Z,15.78
2023-05-22T06:01:45.636Z,16.07
2023-05-22T06:04:36.130Z,16.18
2023-05-22T06:07:07.124Z,16.25
2023-05-22T06:10:31.077Z,16.32
2023-05-22T06:13:41.697Z,16.38
2023-05-22T06:20:18.562Z,16.55
2023-05-22T06:23:59.504Z,16.67
2023-05-22T06:27:27.207Z,16.72
2023-05-22T06:31:37.846Z,16.74
2023-05-22T06:37:54.343Z,17.07
2023-05-22T06:51:05.654Z,17.43
2023-05-22T06:54:32.035Z,17.66
2023-05-22T06:57:57.080Z,17.85
2023-05-22T07:01:14.410Z,18.02
2023-05-22T07:07:36.685Z,18.10
2023-05-22T07:18:40.833Z,18.57
2023-05-22T07:26:06.846Z,18.87
2023-05-22T07:28:54.473Z,18.95
2023-05-22T07:41:16.903Z,19.49
2023-05-22T07:44:22.456Z,19.67
2023-05-22T07:50:55.554Z,19.82
2023-05-22T07:56:42.345Z,19.72
2023-05-22T07:59:18.929Z,19.75
2023-05-22T08:02:42.710Z,19.93
2023-05-22T08:06:02.600Z,20.17
2023-05-22T08:08:39.758Z,20.33
2023-05-22T08:15:27.820Z,20.43
2023-05-22T08:18:38.869Z,20.35
2023-05-22T08:24:22.724Z,20.24
2023-05-22T08:27:12.824Z,20.17
2023-05-22T08:37:04.389Z,20.46
2023-05-22T08:39:54.381Z,20.53
2023-05-22T08:56:57.677Z,21.26
2023-05-22T09:00:16.112Z,21.33
2023-05-22T09:03:49.089Z,21.62
2023-05-22T09:07:02.296Z,22.03
2023-05-22T09:09:45.125Z,22.20
2023-05-22T09:12:14.680Z,22.26
2023-05-22T09:14:45.314Z,22.30
2023-05-22T09:17:17.653Z,22.52
2023-05-22T09:19:46.722Z,22.80
2023-05-22T09:22:15.316Z,22.92
2023-05-22T09:24:46.488Z,23.07
2023-05-22T09:27:28.722Z,23.23
2023-05-22T09:30:09.544Z,23.34
2023-05-22T09:33:14.327Z,23.26
2023-05-22T09:35:50.282Z,23.19
2023-05-22T09:38:30.586Z,23.36
2023-05-22T09:42:05.356Z,23.47
2023-05-22T09:45:09.457Z,23.54
2023-05-22T09:49:05.528Z,23.36
2023-05-22T09:51:54.823Z,23.22
2023-05-22T09:55:12.636Z,22.93
2023-05-22T09:59:20.360Z,22.92
2023-05-22T10:02:07.253Z,22.91
2023-05-22T10:05:37.457Z,22.91
2023-05-22T10:15:32.462Z,21.95
2023-05-22T10:18:33.642Z,22.04
2023-05-22T10:21:06.474Z,22.07
2023-05-22T10:24:27.052Z,21.97
2023-05-22T10:28:02.750Z,21.92
2023-05-22T10:30:49.112Z,21.81
2023-05-22T10:34:01.432Z,21.89
2023-05-22T10:37:17.293Z,21.86
2023-05-22T10:40:19.840Z,21.79
2023-05-22T10:43:19.189Z,21.74
2023-05-22T10:46:19.393Z,21.74
2023-05-22T10:49:05.989Z,21.71
2023-05-22T10:52:09.128Z,21.74
2023-05-22T10:54:45.789Z,21.91
2023-05-22T10:57:16.700Z,22.12
2023-05-22T10:59:51.732Z,22.28
2023-05-22T11:02:22.452Z,22.63
2023-05-22T11:04:51.325Z,22.95
2023-05-22T11:07:19.957Z,23.01
2023-05-22T11:09:48.973Z,23.24
2023-05-22T11:12:19.758Z,23.49
2023-05-22T11:15:11.323Z,23.81
2023-05-22T11:17:40.205Z,23.91
2023-05-22T11:20:26.113Z,23.86
2023-05-22T11:23:04.564Z,24.14
2023-05-22T11:25:37.969Z,24.33
2023-05-22T11:28:08.201Z,24.40
2023-05-22T11:30:38.575Z,24.55
2023-05-22T11:33:07.454Z,24.78
2023-05-22T11:35:36.227Z,25.02
2023-05-22T11:38:08.340Z,25.20
2023-05-22T11:40:36.899Z,25.35
2023-05-22T11:43:05.534Z,25.23
2023-05-22T11:45:38.072Z,25.03
2023-05-22T11:48:09.233Z,24.74
2023-05-22T11:50:43.960Z,24.56
2023-05-22T11:53:12.977Z,24.58
2023-05-22T11:55:43.514Z,24.49
2023-05-22T11:58:12.054Z,24.27
2023-05-22T12:00:40.775Z,24.31
2023-05-22T12:06:09.758Z,24.78
2023-05-22T12:09:30.708Z,24.90
2023-05-22T12:11:59.350Z,24.89
2023-05-22T12:14:33.770Z,24.73
2023-05-22T12:17:12.836Z,24.51
2023-05-22T12:19:42.352Z,24.46
2023-05-22T12:22:11.770Z,24.69
2023-05-22T12:24:47.726Z,24.85
2023-05-22T12:27:16.197Z,24.60
2023-05-22T12:29:44.683Z,24.19
2023-05-22T12:32:14.036Z,23.93
2023-05-22T12:34:45.218Z,23.95
2023-05-22T12:37:25.452Z,23.90
2023-05-22T12:39:58.832Z,23.80
2023-05-22T12:42:28.362Z,23.65
2023-05-22T12:44:58.428Z,23.54
2023-05-22T12:47:27.285Z,23.53
2023-05-22T12:49:56.371Z,23.60
2023-05-22T12:52:24.979Z,23.88
2023-05-22T12:54:53.554Z,24.18
2023-05-22T12:57:22.191Z,24.40
2023-05-22T12:59:50.749Z,24.29
2023-05-22T13:02:19.871Z,24.20
2023-05-22T13:04:48.481Z,24.21
2023-05-22T13:07:17.064Z,24.31
2023-05-22T13:09:45.503Z,24.45
2023-05-22T13:12:14.163Z,24.53
2023-05-22T13:14:42.608Z,24.53
2023-05-22T13:17:11.470Z,24.44
2023-05-22T13:19:39.985Z,24.50
2023-05-22T13:22:09.274Z,24.34
2023-05-22T13:24:37.737Z,24.30
2023-05-22T13:27:06.476Z,24.23
2023-05-22T13:29:34.985Z,24.04
2023-05-22T13:32:03.510Z,23.87
2023-05-22T13:34:32.041Z,23.86
2023-05-22T13:37:00.677Z,23.94
2023-05-22T13:39:29.304Z,23.81
2023-05-22T13:41:57.988Z,23.74
2023-05-22T13:44:27.089Z,23.88
2023-05-22T13:46:55.929Z,24.14
2023-05-22T13:49:24.478Z,24.39
2023-05-22T13:51:53.504Z,24.48
2023-05-22T13:54:22.128Z,24.59
2023-05-22T13:56:50.559Z,24.36
2023-05-22T13:59:18.994Z,24.14
2023-05-22T14:01:48.707Z,24.28
2023-05-22T14:04:17.210Z,24.59
2023-05-22T14:06:45.640Z,24.78
2023-05-22T14:09:14.069Z,24.73
2023-05-22T14:11:42.569Z,24.48
2023-05-22T14:14:11.259Z,24.17
2023-05-22T14:16:42.765Z,24.04
2023-05-22T14:19:11.266Z,24.13
2023-05-22T14:21:39.731Z,24.17
2023-05-22T14:24:08.242Z,23.92
2023-05-22T14:26:36.608Z,23.78
2023-05-22T14:29:05.312Z,23.88
2023-05-22T14:31:45.231Z,24.01
2023-05-22T14:34:15.946Z,23.81
2023-05-22T14:36:44.467Z,23.66
2023-05-22T14:39:12.912Z,23.55
2023-05-22T14:41:41.471Z,23.45
2023-05-22T14:44:10.107Z,23.35
2023-05-22T14:46:38.463Z,23.36
2023-05-22T14:49:07.173Z,23.44
2023-05-22T14:51:35.610Z,23.44
2023-05-22T14:54:05.838Z,23.36
2023-05-22T14:56:34.409Z,23.23
2023-05-22T14:59:02.980Z,23.18
2023-05-22T15:01:31.586Z,23.12
2023-05-22T15:04:00.102Z,23.05
2023-05-22T15:06:29.695Z,22.94
2023-05-22T15:08:58.301Z,22.85
2023-05-22T15:11:27.421Z,22.75
2023-05-22T15:13:55.916Z,22.78
2023-05-22T15:16:26.047Z,22.82
2023-05-22T15:18:55.537Z,22.74
2023-05-22T15:21:24.500Z,22.66
2023-05-22T15:23:52.901Z,22.58
2023-05-22T15:26:21.900Z,22.52
2023-05-22T15:28:50.467Z,22.51
2023-05-22T15:31:18.980Z,22.47
2023-05-22T15:33:47.555Z,22.39
2023-05-22T15:36:16.269Z,22.32
2023-05-22T15:38:44.797Z,22.29
2023-05-22T15:41:13.919Z,22.22
2023-05-22T15:43:42.519Z,22.15
2023-05-22T15:46:12.809Z,22.14
2023-05-22T15:48:41.131Z,22.11
2023-05-22T15:51:10.061Z,21.99
2023-05-22T15:53:39.592Z,21.79
2023-05-22T15:56:09.180Z,21.68
2023-05-22T15:58:37.603Z,21.63
2023-05-22T16:01:08.079Z,21.61
2023-05-22T16:03:36.377Z,21.56
2023-05-22T16:06:05.065Z,21.58
2023-05-22T16:08:33.668Z,21.61
2023-05-22T16:11:02.159Z,21.62
2023-05-22T16:13:30.987Z,21.60
2023-05-22T16:15:59.608Z,21.53
2023-05-22T16:18:28.188Z,21.50
2023-05-22T16:20:56.606Z,21.52
2023-05-22T16:23:25.256Z,21.55
2023-05-22T16:25:53.770Z,21.57
2023-05-22T16:28:22.323Z,21.52
2023-05-22T16:30:50.793Z,21.46
2023-05-22T16:33:19.183Z,21.40
2023-05-22T16:35:47.683Z,21.33
2023-05-22T16:38:16.236Z,21.25
2023-05-22T16:40:44.730Z,21.18
2023-05-22T16:43:14.269Z,21.13
2023-05-22T16:45:46.995Z,21.10
2023-05-22T16:48:15.485Z,21.05
2023-05-22T16:50:44.999Z,21.03
2023-05-22T16:53:16.943Z,21.02
2023-05-22T16:55:45.781Z,20.97
2023-05-22T16:58:14.532Z,20.96
2023-05-22T17:00:43.273Z,20.92
2023-05-22T17:03:12.305Z,20.88
2023-05-22T17:05:41.241Z,20.84
2023-05-22T17:08:10.312Z,20.79
2023-05-22T17:10:38.888Z,20.76
2023-05-22T17:13:07.982Z,20.72
2023-05-22T17:15:36.402Z,20.71
2023-05-22T17:18:05.080Z,20.66
2023-05-22T17:20:34.396Z,20.61
2023-05-22T17:23:02.823Z,20.55
2023-05-22T17:37:10.985Z,20.29
2023-05-22T17:39:39.575Z,20.25
2023-05-22T17:42:08.104Z,20.20
2023-05-22T17:44:38.693Z,20.13
2023-05-22T17:47:07.635Z,20.07
2023-05-22T17:49:37.929Z,19.99
2023-05-22T17:52:08.904Z,19.92
2023-05-22T17:54:37.743Z,19.84
2023-05-22T17:57:06.491Z,19.76
2023-05-22T17:59:34.932Z,19.68
2023-05-22T18:02:03.364Z,19.59
2023-05-22T18:04:31.825Z,19.51
2023-05-22T18:07:00.167Z,19.41
2023-05-22T18:09:28.574Z,19.33
2023-05-22T18:12:03.947Z,19.23
2023-05-22T18:14:32.868Z,19.15
2023-05-22T18:17:01.263Z,19.11
2023-05-22T18:19:29.792Z,19.04
2023-05-22T18:21:58.207Z,18.97
2023-05-22T18:24:28.495Z,18.91
2023-05-22T18:26:57.076Z,18.85
2023-05-22T18:29:25.451Z,18.76
2023-05-22T18:31:54.131Z,18.69
2023-05-22T18:34:22.744Z,18.63
2023-05-22T18:36:52.981Z,18.56
2023-05-22T18:39:21.820Z,18.49
2023-05-22T18:41:50.858Z,18.42
2023-05-22T18:44:19.245Z,18.36
2023-05-22T18:46:47.917Z,18.28
2023-05-22T18:49:16.394Z,18.18
2023-05-22T18:52:02.444Z,18.08
2023-05-22T18:57:52.740Z,17.89
2023-05-22T19:00:21.255Z,17.82
2023-05-22T19:03:31.082Z,17.75
2023-05-22T19:07:03.503Z,17.65
2023-05-22T19:09:39.663Z,17.51
2023-05-22T19:12:08.213Z,17.39
2023-05-22T19:14:36.991Z,17.28
2023-05-22T19:17:08.030Z,17.19
2023-05-22T19:19:36.851Z,17.13
2023-05-22T19:22:06.998Z,17.05
2023-05-22T19:24:38.702Z,16.95
2023-05-22T19:27:07.530Z,16.86
2023-05-22T19:29:36.211Z,16.77
2023-05-22T19:32:04.692Z,16.69
2023-05-22T19:34:33.408Z,16.64
2023-05-22T19:37:01.920Z,16.58
2023-05-22T19:39:30.192Z,16.52
2023-05-22T19:41:58.544Z,16.45
2023-05-22T19:44:26.971Z,16.38
2023-05-22T19:46:56.986Z,16.29
2023-05-22T19:49:25.477Z,16.23
2023-05-22T19:51:55.916Z,16.16
2023-05-22T19:54:25.135Z,16.11
2023-05-22T19:56:53.797Z,16.06
2023-05-22T19:59:22.404Z,16.02
2023-05-22T20:01:53.894Z,15.96
2023-05-22T20:04:23.544Z,15.89
2023-05-22T20:06:52.144Z,15.80
2023-05-22T20:09:20.953Z,15.73
2023-05-22T20:11:50.103Z,15.64
2023-05-22T20:14:18.742Z,15.59
2023-05-22T20:16:50.649Z,15.56
2023-05-22T20:19:20.511Z,15.55
2023-05-22T20:21:52.342Z,15.50
2023-05-22T20:24:21.447Z,15.45
2023-05-22T20:26:49.965Z,15.38
2023-05-22T20:29:18.921Z,15.29
2023-05-22T20:31:47.703Z,15.25
2023-05-22T20:34:19.577Z,15.23
2023-05-22T20:36:48.817Z,15.19
2023-05-22T20:39:18.359Z,15.17
2023-05-22T20:41:50.161Z,15.15
2023-05-22T20:44:23.829Z,15.10
2023-05-22T20:46:53.829Z,15.08
2023-05-22T20:49:22.916Z,15.06
2023-05-22T20:51:54.549Z,15.02
2023-05-22T20:54:23.149Z,14.98
2023-05-22T20:56:53.258Z,14.92
2023-05-22T20:59:23.324Z,14.85
2023-05-22T21:01:52.762Z,14.80
2023-05-22T21:04:22.155Z,14.78
2023-05-22T21:06:53.037Z,14.76
2023-05-22T21:09:24.816Z,14.75
2023-05-22T21:11:53.914Z,14.77
2023-05-22T21:14:26.616Z,14.77
2023-05-22T21:16:56.113Z,14.80
2023-05-22T21:19:26.270Z,14.82
2023-05-22T21:21:55.020Z,14.84
2023-05-22T21:24:23.521Z,14.86
2023-05-22T21:26:52.310Z,14.85
2023-05-22T21:29:21.499Z,14.85
2023-05-22T21:31:50.472Z,14.85
2023-05-22T21:34:19.025Z,14.86
2023-05-22T21:36:47.460Z,14.88
2023-05-22T21:39:16.945Z,14.89
2023-05-22T21:41:45.680Z,14.89
2023-05-22T21:44:14.693Z,14.90
2023-05-22T21:46:46.483Z,14.90
2023-05-22T21:49:21.604Z,14.89
2023-05-22T21:51:52.715Z,14.87
2023-05-22T21:54:22.645Z,14.88
2023-05-22T21:56:51.073Z,14.88
2023-05-22T21:59:19.515Z,14.89
2023-05-22T22:01:47.925Z,14.89
2023-05-22T22:04:16.421Z,14.87
2023-05-22T22:06:44.858Z,14.87
2023-05-22T22:09:13.390Z,14.88
2023-05-22T22:11:41.749Z,14.88
2023-05-22T22:14:10.351Z,14.88
2023-05-22T22:16:40.853Z,14.85
2023-05-22T22:19:09.705Z,14.83
2023-05-22T22:21:38.181Z,14.82
2023-05-22T22:24:06.890Z,14.80
2023-05-22T22:26:35.912Z,14.77
2023-05-22T22:29:04.420Z,14.70
2023-05-22T22:31:32.824Z,14.67
2023-05-22T22:34:01.455Z,14.63
2023-05-22T22:40:42.521Z,14.50
2023-05-22T22:43:11.295Z,14.44
2023-05-22T22:45:42.933Z,14.38
2023-05-22T22:48:11.507Z,14.35
2023-05-22T22:50:40.436Z,14.34
2023-05-22T22:53:08.993Z,14.34
2023-05-22T22:55:37.757Z,14.33
2023-05-22T22:58:07.056Z,14.33
2023-05-22T23:00:36.949Z,14.31
2023-05-22T23:03:05.511Z,14.27
2023-05-22T23:05:34.144Z,14.25
2023-05-22T23:08:02.589Z,14.22
2023-05-22T23:10:30.958Z,14.20
2023-05-22T23:12:59.517Z,14.20
2023-05-22T23:15:28.172Z,14.20
2023-05-22T23:17:56.771Z,14.20
2023-05-22T23:20:25.144Z,14.20
2023-05-22T23:22:53.652Z,14.18
2023-05-22T23:25:22.158Z,14.13
2023-05-22T23:27:51.023Z,14.10
2023-05-22T23:30:19.594Z,14.08
2023-05-22T23:32:48.035Z,14.07
2023-05-22T23:35:16.573Z,14.08
2023-05-22T23:37:44.916Z,14.10
2023-05-22T23:40:13.439Z,14.11
2023-05-22T23:42:41.863Z,14.11
2023-05-22T23:49:28.176Z,14.04
2023-05-22T23:51:56.548Z,14.02
2023-05-22T23:54:25.017Z,14.02
2023-05-22T23:56:53.451Z,14.01
2023-05-22T23:59:21.909Z,14.00
